Time;durP1;ratioP1;P1;durP2;ratioP2;P2;SDS_P1;SDS_P2;PMS_P1;PMS_P2;Temp;Humidity;BMP_temperature;BMP_pressure;BME280_temperature;BME280_humidity;BME280_pressure;Samples;Min_cycle;Max_cycle;Signal;HPM_P1;HPM_P2
2023/09/23 00:01:14;;;;;;;4.38;1.40;;;10.90;99.90;;;10.13;100.00;101024.41;4183578;28;20152;-74
2023/09/23 00:03:16;;;;;;;8.05;1.67;;;10.90;99.90;;;10.17;100.00;101022.31;4185511;28;20029;-74
2023/09/23 00:05:17;;;;;;;2.95;0.98;;;10.90;99.90;;;10.24;100.00;101028.66;4184822;28;20021;-74
2023/09/23 00:07:18;;;;;;;5.57;1.33;;;11.00;99.90;;;10.18;100.00;101016.06;4191900;28;20088;-74
2023/09/23 00:09:19;;;;;;;4.05;1.10;;;11.00;99.90;;;10.17;100.00;101019.66;4186544;28;20092;-74
2023/09/23 00:11:19;;;;;;;3.78;1.00;;;11.00;99.90;;;10.19;100.00;101029.09;4189701;28;20033;-74
2023/09/23 00:13:21;;;;;;;11.02;1.55;;;11.00;99.90;;;10.31;100.00;101038.44;4185760;28;20055;-74
2023/09/23 00:15:22;;;;;;;8.52;2.05;;;11.10;99.90;;;10.39;100.00;101038.53;4184796;28;20051;-73
2023/09/23 00:17:23;;;;;;;7.88;1.60;;;11.10;99.90;;;10.37;100.00;101040.50;4185209;28;20021;-74
2023/09/23 00:19:25;;;;;;;6.75;1.90;;;11.20;99.90;;;10.33;100.00;101031.25;4189722;28;20486;-74
2023/09/23 00:21:26;;;;;;;4.22;1.30;;;11.20;99.90;;;10.33;100.00;101038.31;4184141;28;20025;-74
2023/09/23 00:23:27;;;;;;;8.02;1.50;;;11.10;99.90;;;10.31;100.00;101034.97;4196410;28;20025;-74
2023/09/23 00:25:28;;;;;;;6.88;1.27;;;11.10;99.90;;;10.29;100.00;101042.22;4186612;28;20021;-74
2023/09/23 00:27:30;;;;;;;4.95;1.50;;;11.10;99.90;;;10.25;100.00;101046.13;4195381;28;20028;-74
2023/09/23 00:29:30;;;;;;;7.03;1.50;;;11.00;99.90;;;10.23;100.00;101050.72;4185426;28;20017;-74
2023/09/23 00:31:31;;;;;;;7.82;1.50;;;11.00;99.90;;;10.19;100.00;101047.53;4195661;28;20074;-74
2023/09/23 00:33:37;;;;;;;6.93;1.20;;;11.00;99.90;;;10.18;100.00;101047.69;4183715;28;20148;-74
2023/09/23 00:35:39;;;;;;;10.23;1.38;;;11.00;99.90;;;10.17;100.00;101053.94;4187137;28;20029;-74
2023/09/23 00:37:40;;;;;;;3.78;1.05;;;10.90;99.90;;;10.10;100.00;101058.09;4184093;28;20017;-74
2023/09/23 00:39:42;;;;;;;9.25;1.27;;;10.90;99.90;;;10.06;100.00;101062.00;4185043;28;20033;-74
2023/09/23 00:41:43;;;;;;;4.78;1.02;;;10.90;99.90;;;10.06;100.00;101056.72;4184875;28;20029;-74
2023/09/23 00:43:47;;;;;;;7.65;2.30;;;10.80;99.90;;;10.05;100.00;101070.88;4188078;28;20523;-74
2023/09/23 00:45:51;;;;;;;9.63;1.90;;;10.80;99.90;;;10.00;100.00;101066.84;4201381;28;20032;-74
2023/09/23 00:47:53;;;;;;;;;;;10.80;99.90;;;9.93;100.00;101070.22;4188392;28;20049;-74
2023/09/23 00:49:54;;;;;;;6.65;1.08;;;10.80;99.90;;;9.89;100.00;101067.03;4196149;28;20036;-74
2023/09/23 00:51:55;;;;;;;11.63;2.30;;;10.70;99.90;;;9.88;100.00;101080.38;4189326;28;20446;-74
2023/09/23 00:53:58;;;;;;;5.22;1.20;;;10.70;99.90;;;9.83;100.00;101083.41;4185395;28;20025;-74
2023/09/23 00:56:00;;;;;;;8.70;1.42;;;10.70;99.90;;;9.82;100.00;101086.22;4195984;28;20107;-74
2023/09/23 00:58:01;;;;;;;7.47;1.55;;;10.60;99.90;;;9.83;100.00;101087.84;4200660;28;20020;-74
2023/09/23 01:00:04;;;;;;;8.13;1.30;;;10.60;99.90;;;9.81;100.00;101089.81;4195432;28;20028;-74
2023/09/23 01:02:05;;;;;;;5.90;2.05;;;10.60;99.90;;;9.79;100.00;101089.13;4185396;28;20025;-74
2023/09/23 01:04:08;;;;;;;9.00;1.42;;;10.60;99.90;;;9.74;100.00;101097.44;4184873;28;20029;-74
2023/09/23 01:06:14;;;;;;;8.73;1.52;;;10.60;99.90;;;9.75;100.00;101098.28;4199052;28;20048;-74
2023/09/23 01:08:22;;;;;;;11.13;1.85;;;10.50;99.90;;;9.70;100.00;101096.09;4185229;28;20033;-74
2023/09/23 01:10:24;;;;;;;6.40;2.25;;;10.50;99.90;;;9.67;100.00;101098.16;4193104;28;20028;-74
2023/09/23 01:12:25;;;;;;;8.85;2.03;;;10.50;99.90;;;9.65;100.00;101108.00;4184169;28;20025;-74
2023/09/23 01:14:27;;;;;;;9.98;1.85;;;10.40;99.90;;;9.60;100.00;101105.78;4187292;28;20031;-74
2023/09/23 01:16:28;;;;;;;10.85;1.45;;;10.40;99.90;;;9.55;100.00;101105.41;4185212;28;20507;-74
2023/09/23 01:18:29;;;;;;;8.20;1.65;;;10.30;99.90;;;9.53;100.00;101102.06;4193883;28;20028;-74
2023/09/23 01:20:30;;;;;;;11.77;1.58;;;10.30;99.90;;;9.48;100.00;101101.66;4187326;28;20029;-74
2023/09/23 01:22:34;;;;;;;7.25;1.98;;;10.30;99.90;;;9.49;100.00;101105.13;4184076;28;20021;-74
2023/09/23 01:24:35;;;;;;;11.57;2.08;;;10.30;99.90;;;9.50;100.00;101106.78;4189535;28;20029;-74
2023/09/23 01:26:36;;;;;;;8.55;1.60;;;10.30;99.90;;;9.50;100.00;101106.78;4185174;28;20080;-74
2023/09/23 01:28:37;;;;;;;7.93;1.80;;;10.30;99.90;;;9.49;100.00;101111.22;4184968;28;20028;-74
2023/09/23 01:30:46;;;;;;;8.38;1.13;;;10.30;99.90;;;9.47;100.00;101107.06;4187134;28;20028;-74
2023/09/23 01:32:52;;;;;;;9.68;2.00;;;10.30;99.90;;;9.43;100.00;101103.88;4201471;28;20056;-74
2023/09/23 01:34:52;;;;;;;3.25;0.82;;;10.20;99.90;;;9.43;100.00;101109.97;4190529;28;20108;-74
2023/09/23 01:36:53;;;;;;;8.23;1.73;;;10.20;99.90;;;9.41;100.00;101109.28;4186680;28;20032;-74
2023/09/23 01:38:54;;;;;;;8.05;1.25;;;10.20;99.90;;;9.38;100.00;101103.44;4184861;28;20045;-74
2023/09/23 01:40:55;;;;;;;6.50;1.58;;;10.10;99.90;;;9.36;100.00;101102.78;4191811;28;20079;-74
2023/09/23 01:42:57;;;;;;;5.00;1.20;;;10.10;99.90;;;9.32;100.00;101102.22;4183660;28;20033;-74
2023/09/23 01:44:59;;;;;;;8.23;1.58;;;10.00;99.90;;;9.30;100.00;101098.06;4197816;28;20078;-74
2023/09/23 01:47:00;;;;;;;6.60;1.30;;;10.10;99.90;;;9.27;100.00;101095.69;4184875;28;20024;-74
2023/09/23 01:49:01;;;;;;;8.82;1.75;;;10.00;99.90;;;9.23;100.00;101083.78;4185091;28;20529;-74
2023/09/23 01:51:04;;;;;;;6.78;1.33;;;10.00;99.90;;;9.21;100.00;101088.34;4192526;28;20025;-74
2023/09/23 01:53:05;;;;;;;3.03;0.80;;;9.90;99.90;;;9.19;100.00;101098.22;4200988;28;20028;-74
2023/09/23 01:55:06;;;;;;;5.55;1.13;;;9.90;99.90;;;9.16;100.00;101101.13;4188105;28;20025;-74
2023/09/23 01:57:07;;;;;;;3.55;1.10;;;9.90;99.90;;;9.14;100.00;101090.72;4195894;28;20107;-74
2023/09/23 01:59:09;;;;;;;5.95;1.50;;;9.90;99.90;;;9.13;100.00;101101.38;4192310;28;20029;-74
2023/09/23 02:01:10;;;;;;;6.05;1.50;;;9.80;99.90;;;9.10;100.00;101114.81;4202124;28;20027;-74
2023/09/23 02:03:11;;;;;;;10.25;1.83;;;9.80;99.90;;;9.02;100.00;101112.84;4198841;28;20029;-74
2023/09/23 02:05:13;;;;;;;7.30;1.75;;;9.80;99.90;;;8.98;100.00;101123.81;4198390;28;20037;-74
2023/09/23 02:07:14;;;;;;;11.48;2.10;;;9.80;99.90;;;8.94;100.00;101125.88;4188065;28;20056;-74
2023/09/23 02:09:15;;;;;;;8.18;1.60;;;9.70;99.90;;;8.92;100.00;101133.09;4200903;28;20033;-74
2023/09/23 02:11:16;;;;;;;11.18;2.17;;;9.70;99.90;;;8.90;100.00;101125.31;4187864;28;20017;-74
2023/09/23 02:13:18;;;;;;;11.63;2.78;;;9.60;99.90;;;8.92;100.00;101133.09;4187972;28;20021;-74
2023/09/23 02:15:20;;;;;;;7.90;1.38;;;9.70;99.90;;;8.94;100.00;101125.03;4187818;28;20029;-74
2023/09/23 02:17:21;;;;;;;10.02;1.35;;;9.60;99.90;;;8.95;100.00;101124.09;4187352;28;20427;-74
2023/09/23 02:19:22;;;;;;;6.50;1.63;;;9.60;99.90;;;8.97;100.00;101124.75;4190795;28;20539;-74
2023/09/23 02:21:23;;;;;;;6.15;1.60;;;9.70;99.90;;;8.99;100.00;101125.47;4186574;28;20021;-74
2023/09/23 02:23:24;;;;;;;9.80;1.58;;;9.70;99.90;;;9.00;100.00;101122.69;4197244;28;20431;-74
2023/09/23 02:25:25;;;;;;;7.20;1.60;;;9.70;99.90;;;8.99;100.00;101125.47;4187458;28;20021;-74
2023/09/23 02:27:26;;;;;;;9.13;1.95;;;9.70;99.90;;;8.97;100.00;101116.88;4186612;28;20507;-74
2023/09/23 02:29:27;;;;;;;4.25;1.40;;;9.70;99.90;;;8.96;100.00;101125.75;4195687;28;20018;-74
2023/09/23 02:31:28;;;;;;;6.57;1.15;;;9.70;99.90;;;8.87;100.00;101117.69;4187501;28;20032;-74
2023/09/23 02:33:29;;;;;;;6.75;2.00;;;9.70;99.90;;;8.87;100.00;101117.69;4185811;28;20022;-74
2023/09/23 02:35:30;;;;;;;6.18;1.20;;;9.60;99.90;;;8.85;100.00;101111.75;4202543;28;20027;-74
2023/09/23 02:37:31;;;;;;;7.70;1.70;;;9.60;99.90;;;8.85;100.00;101113.53;4187515;28;20017;-74
2023/09/23 02:39:32;;;;;;;10.68;2.28;;;9.60;99.90;;;8.82;100.00;101112.00;4189327;28;20045;-74
2023/09/23 02:41:33;;;;;;;8.30;1.30;;;9.60;99.90;;;8.81;100.00;101114.78;4199474;28;20029;-74
2023/09/23 02:43:35;;;;;;;5.88;1.50;;;9.50;99.90;;;8.75;100.00;101110.06;4202368;28;20062;-74
2023/09/23 02:45:36;;;;;;;7.15;1.45;;;9.50;99.90;;;8.72;100.00;101121.66;4186154;28;20028;-73
2023/09/23 02:47:38;;;;;;;8.30;0.90;;;9.50;99.90;;;8.63;100.00;101122.47;4195268;28;20024;-74
2023/09/23 02:49:39;;;;;;;5.25;1.65;;;9.40;99.90;;;8.53;100.00;101124.25;4199873;28;20028;-74
2023/09/23 02:51:44;;;;;;;5.90;1.50;;;9.30;99.90;;;8.47;100.00;101126.59;4203950;28;20020;-74
2023/09/23 02:53:45;;;;;;;5.40;1.60;;;9.30;99.90;;;8.42;100.00;101129.63;4179904;28;20076;-74
2023/09/23 02:55:52;;;;;;;6.03;1.77;;;9.20;99.90;;;8.38;100.00;101135.25;4187168;28;20420;-74
2023/09/23 02:57:55;;;;;;;7.93;1.48;;;9.20;99.90;;;8.36;100.00;101134.56;4187267;28;20584;-74
2023/09/23 02:59:57;;;;;;;7.45;1.67;;;9.10;99.90;;;8.33;100.00;101130.41;4185868;28;20044;-74
2023/09/23 03:02:00;;;;;;;12.68;1.40;;;9.10;99.90;;;8.37;100.00;101134.44;4192835;28;20056;-74
2023/09/23 03:04:07;;;;;;;8.88;2.00;;;9.10;99.90;;;8.40;100.00;101142.03;4195827;28;20020;-73
2023/09/23 03:06:08;;;;;;;5.72;1.05;;;9.10;99.90;;;8.41;100.00;101150.78;4188741;28;20104;-74
2023/09/23 03:08:13;;;;;;;3.70;1.10;;;9.10;99.90;;;8.40;100.00;101146.47;4195431;28;20013;-74
2023/09/23 03:10:19;;;;;;;6.22;1.23;;;9.10;99.90;;;8.39;100.00;101150.09;4185515;28;20031;-74
2023/09/23 03:12:21;;;;;;;4.35;1.73;;;9.20;99.90;;;8.44;100.00;101156.59;4181012;28;20021;-74
2023/09/23 03:14:28;;;;;;;9.15;1.40;;;9.20;99.90;;;8.43;100.00;101147.03;4197628;28;20028;-74
2023/09/23 03:16:29;;;;;;;5.68;1.85;;;9.20;99.90;;;8.42;100.00;101152.44;4191648;28;20032;-74
2023/09/23 03:18:33;;;;;;;5.32;1.35;;;9.20;99.90;;;8.47;100.00;101158.97;4193563;28;20021;-74
2023/09/23 03:20:36;;;;;;;;;;;9.20;99.90;;;8.42;100.00;101161.19;4198745;28;20059;-74
2023/09/23 03:22:37;;;;;;;4.85;1.52;;;9.20;99.90;;;8.49;100.00;101166.72;4188856;28;19974;-74
2023/09/23 03:24:38;;;;;;;5.10;1.27;;;9.30;99.90;;;8.50;100.00;101166.59;4195040;28;20037;-74
2023/09/23 03:26:40;;;;;;;8.10;1.00;;;9.30;99.90;;;8.51;100.00;101176.13;4186677;28;20092;-74
2023/09/23 03:28:42;;;;;;;7.55;1.95;;;9.30;99.90;;;8.48;100.00;101163.28;4186536;28;20024;-74
2023/09/23 03:30:49;;;;;;;7.68;1.45;;;9.20;99.90;;;8.45;100.00;101171.44;4188741;28;20074;-74
2023/09/23 03:32:50;;;;;;;7.10;1.02;;;9.30;99.90;;;8.47;100.00;101176.53;4185327;28;20029;-74
2023/09/23 03:34:51;;;;;;;5.13;1.23;;;9.20;99.90;;;8.44;100.00;101169.75;4201659;28;20027;-74
2023/09/23 03:36:53;;;;;;;10.25;1.65;;;9.20;99.90;;;8.43;100.00;101172.50;4189358;28;20025;-73
2023/09/23 03:38:54;;;;;;;10.05;1.30;;;9.20;99.90;;;8.42;100.00;101174.31;4188436;28;20524;-74
2023/09/23 03:41:02;;;;;;;6.97;2.65;;;9.10;99.90;;;8.35;100.00;101170.53;4186542;28;20028;-74
2023/09/23 03:43:04;;;;;;;4.88;1.42;;;9.10;99.90;;;8.32;100.00;101173.44;4187053;28;20025;-74
2023/09/23 03:45:06;;;;;;;5.95;1.35;;;9.10;99.90;;;8.30;100.00;101168.28;4185967;28;20033;-74
2023/09/23 03:47:07;;;;;;;11.80;1.75;;;9.10;99.90;;;8.30;100.00;101170.09;4184952;28;20025;-74
2023/09/23 03:49:09;;;;;;;3.70;1.35;;;9.10;99.90;;;8.31;100.00;101171.75;4193966;28;20597;-74
2023/09/23 03:51:09;;;;;;;7.43;1.40;;;9.10;99.90;;;8.31;100.00;101169.13;4186269;28;20047;-74
2023/09/23 03:53:13;;;;;;;5.53;1.58;;;9.00;99.90;;;8.26;100.00;101166.88;4199574;28;20147;-74
2023/09/23 03:55:14;;;;;;;9.30;2.00;;;9.00;99.90;;;8.23;100.00;101168.91;4186256;28;20031;-73
2023/09/23 03:57:15;;;;;;;4.38;1.25;;;9.00;99.90;;;8.18;100.00;101173.75;4186197;28;20033;-74
2023/09/23 03:59:16;;;;;;;4.18;1.17;;;9.00;99.90;;;8.14;100.00;101174.94;4184704;28;20522;-73
2023/09/23 04:01:19;;;;;;;7.65;2.03;;;8.90;99.90;;;8.09;100.00;101185.88;4185737;28;20029;-73
2023/09/23 04:03:21;;;;;;;6.82;1.67;;;8.90;99.90;;;8.05;100.00;101178.34;4189549;28;20111;-74
2023/09/23 04:05:25;;;;;;;8.55;1.42;;;8.90;99.90;;;8.07;100.00;101177.25;4192675;28;20029;-74
2023/09/23 04:07:26;;;;;;;8.75;1.52;;;8.80;99.90;;;8.05;100.00;101175.72;4185973;28;20025;-74
2023/09/23 04:09:28;;;;;;;10.00;1.58;;;8.80;99.90;;;8.03;100.00;101173.25;4185800;28;20025;-74
2023/09/23 04:11:29;;;;;;;5.55;1.13;;;8.80;99.90;;;8.00;100.00;101176.13;4185762;28;20060;-74
2023/09/23 04:13:30;;;;;;;11.55;2.60;;;8.80;99.90;;;7.97;100.00;101180.81;4190978;28;20403;-74
2023/09/23 04:15:32;;;;;;;7.47;1.45;;;8.70;99.90;;;7.92;100.00;101178.53;4189084;28;20055;-74
2023/09/23 04:17:34;;;;;;;7.65;1.45;;;8.70;99.90;;;7.97;100.00;101191.31;4185458;28;20021;-74
2023/09/23 04:19:35;;;;;;;9.30;2.22;;;8.70;99.90;;;7.89;100.00;101185.84;4185852;28;20013;-74
2023/09/23 04:21:36;;;;;;;6.13;1.52;;;8.70;99.90;;;7.88;100.00;101192.06;4193318;28;20028;-74
2023/09/23 04:23:38;;;;;;;5.13;1.35;;;8.70;99.90;;;7.85;100.00;101195.78;4193346;28;20021;-74
2023/09/23 04:25:39;;;;;;;5.38;1.40;;;8.60;99.90;;;7.79;100.00;101197.09;4200773;28;20032;-74
2023/09/23 04:27:40;;;;;;;5.80;1.65;;;8.60;99.90;;;7.70;100.00;101195.28;4217759;28;20031;-74
2023/09/23 04:29:40;;;;;;;4.90;1.27;;;8.60;99.90;;;7.65;100.00;101201.84;4192467;28;20025;-74
2023/09/23 04:31:41;;;;;;;10.38;1.25;;;8.50;99.90;;;7.56;100.00;101198.19;4184437;28;20110;-74
2023/09/23 04:33:42;;;;;;;6.05;1.42;;;8.40;99.90;;;7.53;100.00;101198.44;4197413;28;20021;-74
2023/09/23 04:35:43;;;;;;;5.35;1.33;;;8.40;99.90;;;7.48;100.00;101205.00;4189539;28;20055;-74
2023/09/23 04:37:44;;;;;;;7.90;1.80;;;8.30;99.90;;;7.41;100.00;101199.44;4185353;28;20032;-74
2023/09/23 04:39:45;;;;;;;5.45;1.25;;;8.30;99.90;;;7.40;100.00;101205.66;4195257;28;20036;-74
2023/09/23 04:41:46;;;;;;;7.40;1.30;;;8.20;99.90;;;7.35;100.00;101209.63;4185416;28;20104;-74
2023/09/23 04:43:47;;;;;;;5.95;1.23;;;8.20;99.90;;;7.32;100.00;101209.84;4188791;28;20090;-73
2023/09/23 04:45:48;;;;;;;6.72;1.30;;;8.20;99.90;;;7.28;100.00;101216.28;4192295;28;20384;-74
2023/09/23 04:47:52;;;;;;;3.80;1.20;;;8.10;99.90;;;7.23;100.00;101216.66;4196328;28;20082;-74
2023/09/23 04:49:54;;;;;;;7.15;2.00;;;8.10;99.90;;;7.18;100.00;101214.41;4185964;28;20480;-74
2023/09/23 04:51:55;;;;;;;5.75;1.50;;;8.00;99.90;;;7.15;100.00;101217.28;4185360;28;20029;-73
2023/09/23 04:53:56;;;;;;;4.55;1.20;;;8.00;99.90;;;7.11;100.00;101215.00;4193449;28;20021;-73
2023/09/23 04:55:58;;;;;;;7.75;1.45;;;8.00;99.90;;;7.05;100.00;101218.13;4190488;28;20041;-74
2023/09/23 04:57:59;;;;;;;5.88;1.38;;;7.90;99.90;;;7.00;100.00;101225.53;4185151;28;20128;-74
2023/09/23 05:00:00;;;;;;;11.75;1.73;;;7.90;99.90;;;6.95;100.00;101215.41;4188912;28;20033;-74
2023/09/23 05:02:01;;;;;;;5.38;1.30;;;7.80;99.90;;;6.98;100.00;101220.41;4185070;28;20048;-74
2023/09/23 05:04:08;;;;;;;9.20;1.30;;;7.80;99.90;;;6.97;100.00;101218.72;4193955;28;20032;-74
2023/09/23 05:06:10;;;;;;;5.00;1.88;;;7.80;99.90;;;6.94;100.00;101218.13;4185126;28;20025;-74
2023/09/23 05:08:11;;;;;;;6.63;1.30;;;7.80;99.90;;;6.90;100.00;101235.91;4184080;28;20051;-74
2023/09/23 05:10:12;;;;;;;6.03;1.30;;;7.70;99.90;;;6.86;100.00;101238.91;4192390;28;20025;-74
2023/09/23 05:12:14;;;;;;;6.15;1.10;;;7.70;99.90;;;6.77;100.00;101229.13;4201008;28;20499;-74
2023/09/23 05:14:17;;;;;;;8.93;1.42;;;7.60;99.90;;;6.75;100.00;101236.28;4193957;28;20506;-74
2023/09/23 05:16:18;;;;;;;4.28;1.17;;;7.60;99.90;;;6.73;100.00;101238.16;4183737;28;20040;-74
2023/09/23 05:18:19;;;;;;;7.30;1.13;;;7.60;99.90;;;6.74;100.00;101247.72;4193506;28;20024;-74
2023/09/23 05:20:21;;;;;;;2.72;1.13;;;7.60;99.90;;;6.73;100.00;101254.75;4201814;28;20028;-74
2023/09/23 05:22:23;;;;;;;3.53;1.20;;;7.50;99.90;;;6.69;100.00;101251.50;4199992;28;20094;-74
2023/09/23 05:24:26;;;;;;;5.32;1.25;;;7.50;99.90;;;6.69;100.00;101251.50;4181068;28;20037;-74
2023/09/23 05:26:27;;;;;;;10.15;1.80;;;7.50;99.90;;;6.74;100.00;101258.19;4196333;28;20028;-74
2023/09/23 05:28:28;;;;;;;5.80;1.13;;;7.50;99.90;;;6.75;100.00;101262.50;4191807;28;20028;-74
2023/09/23 05:30:29;;;;;;;6.07;1.10;;;7.50;99.90;;;6.74;100.00;101264.28;4187157;28;20025;-74
2023/09/23 05:32:29;;;;;;;3.78;1.30;;;7.60;99.90;;;6.71;100.00;101263.69;4193129;28;20055;-74
2023/09/23 05:34:30;;;;;;;4.20;1.20;;;7.50;99.90;;;6.69;100.00;101263.78;4195812;28;20066;-74
2023/09/23 05:36:32;;;;;;;5.60;1.35;;;7.60;99.90;;;6.73;100.00;101272.25;4192331;28;20124;-74
2023/09/23 05:38:36;;;;;;;7.03;1.30;;;7.50;99.90;;;6.71;100.00;101277.63;4188010;28;20045;-74
2023/09/23 05:40:37;;;;;;;5.07;1.20;;;7.50;99.90;;;6.71;100.00;101276.78;4191686;28;20511;-74
2023/09/23 05:42:38;;;;;;;5.05;1.60;;;7.50;99.90;;;6.68;100.00;101286.56;4187089;28;20071;-74
2023/09/23 05:44:41;;;;;;;6.15;1.65;;;7.50;99.90;;;6.72;100.00;101288.97;4204767;28;20039;-74
2023/09/23 05:46:42;;;;;;;4.68;1.95;;;7.50;99.90;;;6.73;100.00;101294.06;4188053;28;20052;-74
2023/09/23 05:48:43;;;;;;;7.30;1.50;;;7.50;99.90;;;6.76;100.00;101295.63;4188030;28;20032;-74
2023/09/23 05:50:44;;;;;;;8.60;1.60;;;7.50;99.90;;;6.78;100.00;101307.66;4188205;28;20026;-74
2023/09/23 05:52:45;;;;;;;7.63;1.55;;;7.60;99.90;;;6.83;100.00;101309.94;4188119;28;20021;-74
2023/09/23 05:54:48;;;;;;;6.93;1.83;;;7.60;99.90;;;6.87;100.00;101320.06;4201936;28;20066;-74
2023/09/23 05:56:49;;;;;;;9.45;1.52;;;7.60;99.90;;;6.88;100.00;101316.50;4204622;28;20159;-74
2023/09/23 05:58:50;;;;;;;10.57;2.03;;;7.70;99.90;;;6.91;100.00;101326.75;4195055;28;20074;-74
2023/09/23 06:00:52;;;;;;;5.32;2.17;;;7.70;99.90;;;6.91;100.00;101331.16;4187893;28;20024;-74
2023/09/23 06:02:52;;;;;;;10.57;1.77;;;7.70;99.90;;;6.88;100.00;101326.13;4187529;28;20099;-74
2023/09/23 06:04:54;;;;;;;9.65;2.05;;;7.70;99.90;;;6.93;100.00;101324.81;4201423;28;20029;-74
2023/09/23 06:06:55;;;;;;;5.85;1.85;;;7.70;99.90;;;6.97;100.00;101330.69;4204563;28;20040;-74
2023/09/23 06:08:57;;;;;;;7.28;1.73;;;7.80;99.90;;;7.02;100.00;101328.53;4204390;28;20033;-74
2023/09/23 06:11:05;;;;;;;5.78;1.90;;;7.80;99.90;;;7.06;100.00;101333.44;4187847;28;20013;-74
2023/09/23 06:13:06;;;;;;;10.90;2.13;;;7.80;99.90;;;7.10;100.00;101336.66;4187798;28;20043;-74
2023/09/23 06:15:08;;;;;;;7.20;2.33;;;7.90;99.90;;;7.15;100.00;101329.25;4196138;28;20400;-74
2023/09/23 06:17:09;;;;;;;13.15;3.03;;;7.90;99.90;;;7.22;100.00;101333.06;4189955;28;20136;-74
2023/09/23 06:19:09;;;;;;;7.95;2.45;;;7.90;99.90;;;7.27;100.00;101335.31;4203703;28;20025;-74
2023/09/23 06:21:10;;;;;;;7.22;2.90;;;8.00;99.90;;;7.33;100.00;101343.56;4204255;28;20404;-74
2023/09/23 06:23:11;;;;;;;7.25;3.42;;;8.10;99.90;;;7.33;100.00;101338.31;4204151;28;20423;-74
2023/09/23 06:25:12;;;;;;;9.57;3.00;;;8.10;99.90;;;7.41;100.00;101335.91;4191621;28;20033;-74
2023/09/23 06:27:13;;;;;;;12.10;3.30;;;8.20;99.90;;;7.46;100.00;101341.66;4187486;28;20028;-74
2023/09/23 06:29:14;;;;;;;9.60;3.92;;;8.20;99.90;;;7.50;100.00;101350.94;4192014;28;20032;-74
2023/09/23 06:31:15;;;;;;;10.02;2.95;;;8.20;99.90;;;7.54;100.00;101347.13;4186401;28;20032;-73
2023/09/23 06:33:16;;;;;;;8.35;3.25;;;8.30;99.90;;;7.57;100.00;101352.13;4196425;28;20095;-73
2023/09/23 06:35:19;;;;;;;11.13;3.45;;;8.30;99.90;;;7.58;100.00;101351.19;4190192;28;20103;-74
2023/09/23 06:37:20;;;;;;;10.60;2.50;;;8.40;99.90;;;7.66;100.00;101350.56;4186338;28;20059;-74
2023/09/23 06:39:23;;;;;;;9.40;3.67;;;8.40;99.90;;;7.70;100.00;101357.25;4196017;28;20578;-74
2023/09/23 06:41:24;;;;;;;14.30;3.38;;;8.40;99.90;;;7.76;100.00;101362.81;4203959;28;20028;-74
2023/09/23 06:43:26;;;;;;;13.95;4.78;;;8.50;99.90;;;7.80;100.00;101359.00;4200205;28;20403;-74
2023/09/23 06:45:29;;;;;;;14.33;3.80;;;8.50;99.90;;;7.87;100.00;101364.59;4189153;28;20049;-74
2023/09/23 06:47:30;;;;;;;10.98;3.92;;;8.60;99.90;;;7.90;100.00;101369.59;4195708;28;20021;-74
2023/09/23 06:49:30;;;;;;;7.18;3.20;;;8.60;99.90;;;7.95;100.00;101382.34;4190761;28;20021;-73
2023/09/23 06:51:31;;;;;;;9.50;3.30;;;8.70;99.90;;;7.97;100.00;101383.09;4187103;28;20028;-73
2023/09/23 06:53:32;;;;;;;11.63;3.70;;;8.70;99.90;;;7.99;100.00;101378.53;4191103;28;20023;-74
2023/09/23 06:55:33;;;;;;;8.43;3.55;;;8.80;99.90;;;8.02;100.00;101383.53;4194228;28;20033;-74
2023/09/23 06:57:37;;;;;;;10.65;3.47;;;8.80;99.90;;;8.04;100.00;101392.97;4185902;28;20033;-74
2023/09/23 06:59:38;;;;;;;9.93;3.08;;;8.80;99.90;;;8.08;100.00;101389.13;4185709;28;20179;-74
2023/09/23 07:01:38;;;;;;;7.38;2.95;;;8.80;99.90;;;8.09;100.00;101387.34;4187046;28;20029;-74
2023/09/23 07:03:39;;;;;;;7.23;2.70;;;8.90;99.90;;;8.11;100.00;101394.13;4193528;28;20025;-74
2023/09/23 07:05:42;;;;;;;10.68;3.17;;;8.90;99.90;;;8.16;100.00;101391.13;4192634;28;20126;-74
2023/09/23 07:07:43;;;;;;;7.07;2.95;;;8.90;99.90;;;8.20;100.00;101393.41;4185554;28;20104;-74
2023/09/23 07:09:43;;;;;;;7.35;3.20;;;9.00;99.90;;;8.26;100.00;101397.31;4186984;28;20025;-74
2023/09/23 07:11:44;;;;;;;6.50;2.28;;;9.00;99.90;;;8.30;100.00;101396.16;4193768;28;20021;-74
2023/09/23 07:13:46;;;;;;;5.50;2.40;;;9.10;99.90;;;8.32;100.00;101400.31;4193070;28;20047;-74
2023/09/23 07:15:47;;;;;;;5.97;2.03;;;9.10;99.90;;;8.33;100.00;101403.78;4194521;28;20032;-74
2023/09/23 07:17:47;;;;;;;7.85;1.90;;;9.10;99.90;;;8.35;100.00;101412.38;4189759;28;20024;-74
2023/09/23 07:19:48;;;;;;;6.53;2.28;;;9.10;99.90;;;8.37;100.00;101413.06;4185774;28;20021;-74
2023/09/23 07:21:49;;;;;;;10.90;2.45;;;9.10;99.90;;;8.43;100.00;101422.25;4196311;28;20141;-74
2023/09/23 07:23:50;;;;;;;10.00;3.78;;;9.20;99.90;;;8.50;100.00;101421.63;4198658;28;20013;-74
2023/09/23 07:25:52;;;;;;;14.60;4.45;;;9.30;99.90;;;8.58;100.00;101421.81;4185529;28;20033;-74
2023/09/23 07:27:54;;;;;;;19.83;5.25;;;9.30;99.90;;;8.66;100.00;101427.28;4186651;28;20073;-74
2023/09/23 07:29:55;;;;;;;15.00;4.68;;;9.40;99.90;;;8.72;100.00;101426.75;4196169;28;20020;-73
2023/09/23 07:31:56;;;;;;;14.68;4.25;;;9.40;99.90;;;8.80;100.00;101434.03;4186059;28;20024;-74
2023/09/23 07:33:57;;;;;;;15.63;4.43;;;9.50;99.90;;;8.83;100.00;101432.00;4186119;28;20037;-74
2023/09/23 07:35:58;;;;;;;11.10;3.60;;;9.60;99.90;;;8.94;100.00;101448.66;4195252;28;20036;-74
2023/09/23 07:38:00;;;;;;;6.18;2.70;;;9.70;99.90;;;8.99;100.00;101449.13;4202897;28;20028;-74
2023/09/23 07:40:01;;;;;;;6.28;3.08;;;9.70;99.90;;;9.07;100.00;101454.56;4187775;28;20086;-74
2023/09/23 07:42:02;;;;;;;10.73;2.28;;;9.80;99.90;;;9.12;100.00;101465.53;4185950;28;20396;-74
2023/09/23 07:44:04;;;;;;;5.93;2.30;;;9.80;99.90;;;9.20;100.00;101471.81;4186343;28;20037;-74
2023/09/23 07:46:05;;;;;;;7.38;2.35;;;9.90;99.90;;;9.26;100.00;101478.38;4195019;28;20025;-74
2023/09/23 07:48:07;;;;;;;8.48;3.80;;;10.00;99.90;;;9.33;100.00;101480.38;4184848;28;20100;-74
2023/09/23 07:50:09;;;;;;;9.73;3.40;;;10.10;99.90;;;9.42;100.00;101484.84;4190120;28;20021;-74
2023/09/23 07:52:09;;;;;;;6.85;2.80;;;10.20;99.90;;;9.53;100.00;101486.56;4201497;28;20021;-75
2023/09/23 07:54:11;;;;;;;6.32;2.65;;;10.30;99.90;;;9.65;100.00;101487.31;4201451;28;20110;-74
2023/09/23 07:56:12;;;;;;;6.40;2.28;;;10.40;99.90;;;9.76;100.00;101500.41;4202711;28;20063;-74
2023/09/23 07:58:13;;;;;;;6.70;2.30;;;10.50;99.90;;;9.85;100.00;101503.09;4198433;28;20036;-74
2023/09/23 08:00:14;;;;;;;12.68;4.03;;;10.60;99.90;;;9.96;100.00;101492.44;4186062;28;20090;-74
2023/09/23 08:02:14;;;;;;;13.35;3.90;;;10.70;99.90;;;10.12;100.00;101499.00;4185927;28;20025;-74
2023/09/23 08:04:15;;;;;;;15.18;4.45;;;10.80;99.90;;;10.24;100.00;101496.16;4185954;28;20033;-74
2023/09/23 08:06:16;;;;;;;14.48;4.13;;;11.00;99.90;;;10.39;100.00;101496.63;4184766;28;20662;-74
2023/09/23 08:08:17;;;;;;;7.72;2.85;;;11.10;99.90;;;10.49;100.00;101497.44;4186094;28;20570;-74
2023/09/23 08:10:18;;;;;;;9.30;3.10;;;11.20;99.90;;;10.62;100.00;101492.75;4185970;28;20021;-74
2023/09/23 08:12:19;;;;;;;8.02;3.15;;;11.40;99.90;;;10.75;100.00;101498.56;4197635;28;20074;-74
2023/09/23 08:14:20;;;;;;;11.20;3.88;;;11.50;99.90;;;10.93;100.00;101502.19;4189381;28;20080;-74
2023/09/23 08:16:21;;;;;;;8.23;3.40;;;11.60;99.90;;;11.10;100.00;101493.56;4191920;28;20025;-74
2023/09/23 08:18:22;;;;;;;10.98;3.97;;;11.80;99.90;;;11.33;100.00;101498.53;4191528;28;20066;-74
2023/09/23 08:20:23;;;;;;;11.50;2.97;;;12.00;99.90;;;11.50;100.00;101509.19;4185914;28;20032;-74
2023/09/23 08:22:24;;;;;;;7.85;3.50;;;12.10;99.90;;;11.65;100.00;101498.97;4200627;28;20099;-74
2023/09/23 08:24:25;;;;;;;14.23;3.85;;;12.30;99.90;;;11.71;100.00;101506.34;4184329;28;20029;-75
2023/09/23 08:26:26;;;;;;;7.38;2.80;;;12.40;99.90;;;11.76;100.00;101506.78;4193722;28;20020;-74
2023/09/23 08:28:27;;;;;;;7.65;3.30;;;12.40;99.90;;;11.77;100.00;101508.44;4197052;28;20430;-74